Time;durP1;ratioP1;P1;durP2;ratioP2;P2;SDS_P1;SDS_P2;PMS_P1;PMS_P2;Temp;Humidity;BMP_temperature;BMP_pressure;BME280_temperature;BME280_humidity;BME280_pressure;Samples;Min_cycle;Max_cycle;Signal;HPM_P1;HPM_P2
2022/09/03 00:00:20;;;;;;;15.60;9.55;;;;;;;19.94;87.15;96265.78;5134289;27;20069;-60
2022/09/03 00:02:49;;;;;;;;;;;;;;;19.94;87.59;96269.28;5134944;27;20043;-60
2022/09/03 00:05:22;;;;;;;17.13;9.73;;;;;;;19.93;88.05;96274.72;5134485;27;19926;-60
2022/09/03 00:07:56;;;;;;;14.93;10.05;;;;;;;19.95;88.63;96273.63;5134215;27;20051;-60
2022/09/03 00:10:29;;;;;;;24.90;9.00;;;;;;;19.99;88.63;96271.56;5134238;27;20457;-59
2022/09/03 00:13:01;;;;;;;11.55;9.02;;;;;;;19.99;88.37;96268.06;5134374;27;20073;-59
2022/09/03 00:15:33;;;;;;;13.02;11.55;;;;;;;20.01;87.90;96268.81;5133693;27;20071;-60
2022/09/03 00:18:06;;;;;;;17.02;8.85;;;;;;;20.05;88.05;96270.25;5133944;27;20085;-59
2022/09/03 00:20:39;;;;;;;14.40;8.93;;;;;;;20.07;87.59;96268.31;5134126;27;20089;-59
2022/09/03 00:23:10;;;;;;;18.17;9.98;;;;;;;20.04;87.75;96266.75;5134250;27;20095;-60
2022/09/03 00:25:43;;;;;;;13.75;8.82;;;;;;;20.05;87.86;96272.91;5134195;27;20043;-59
2022/09/03 00:28:15;;;;;;;17.85;8.45;;;;;;;20.06;87.40;96272.78;5134195;27;20450;-59
2022/09/03 00:30:47;;;;;;;18.10;9.48;;;;;;;20.08;86.91;96276.16;5133998;27;20138;-60
2022/09/03 00:33:21;;;;;;;13.88;9.75;;;;;;;20.07;87.28;96271.81;5134197;27;20100;-60
2022/09/03 00:35:53;;;;;;;11.38;9.43;;;;;;;20.10;86.88;96278.69;5134092;27;20473;-59
2022/09/03 00:38:21;;;;;;;18.05;8.88;;;;;;;20.12;86.66;96273.25;5134007;27;20043;-60
2022/09/03 00:41:01;;;;;;;16.45;10.27;;;;;;;20.14;86.17;96273.97;5133917;27;20047;-60
2022/09/03 00:43:46;;;;;;;12.95;9.13;;;;;;;20.16;86.77;96264.91;5133934;27;20134;-61
2022/09/03 00:46:21;;;;;;;13.38;9.35;;;;;;;20.12;86.30;96268.78;5133968;27;20050;-60
2022/09/03 00:49:06;;;;;;;17.13;9.15;;;;;;;20.11;86.83;96272.44;5133941;27;20069;-60
2022/09/03 00:51:40;;;;;;;11.73;9.02;;;;;;;20.04;85.96;96273.88;5133836;27;20134;-60
2022/09/03 00:54:20;;;;;;;16.67;9.02;;;;;;;20.00;85.91;96269.75;5134004;27;20053;-60
2022/09/03 00:56:58;;;;;;;16.38;9.95;;;;;;;20.01;86.45;96268.81;5134095;27;20129;-59
2022/09/03 00:59:34;;;;;;;14.00;9.48;;;;;;;20.02;86.09;96273.16;5133710;27;20104;-59
2022/09/03 01:02:15;;;;;;;13.90;9.38;;;;;;;20.02;86.10;96265.19;5133795;27;20101;-60
2022/09/03 01:04:59;;;;;;;24.42;9.55;;;;;;;19.96;85.90;96266.50;5133791;27;20039;-60
2022/09/03 01:07:38;;;;;;;17.08;9.82;;;;;;;19.96;85.40;96266.50;5133783;27;20086;-60
2022/09/03 01:10:16;;;;;;;17.90;8.57;;;;;;;19.93;85.76;96267.59;5133784;27;20043;-59
2022/09/03 01:12:53;;;;;;;13.18;8.70;;;;;;;19.88;85.64;96267.13;5133691;27;20099;-60
2022/09/03 01:15:27;;;;;;;11.55;8.82;;;;;;;19.83;85.27;96262.19;5133892;27;20043;-60
2022/09/03 01:18:10;;;;;;;13.18;9.70;;;;;;;19.86;85.36;96258.44;5133630;27;20055;-60
2022/09/03 01:20:46;;;;;;;13.52;9.98;;;;;;;19.87;85.39;96262.75;5133594;27;20093;-60
2022/09/03 01:23:45;;;;;;;17.75;9.50;;;;;;;19.88;84.93;96261.81;5133524;27;20082;-59
2022/09/03 01:26:30;;;;;;;15.95;8.45;;;;;;;19.82;84.27;96265.81;5107833;27;20054;-59
2022/09/03 01:29:13;;;;;;;10.25;9.02;;;;;;;19.82;84.29;96267.63;5137320;27;20070;-59
2022/09/03 01:31:48;;;;;;;11.07;9.20;;;;;;;19.74;83.86;96270.06;5137267;27;20396;-60
2022/09/03 01:34:25;;;;;;;15.07;9.35;;;;;;;19.72;83.70;96275.47;5137229;27;20507;-61
2022/09/03 01:37:02;;;;;;;9.10;8.23;;;;;;;19.69;83.57;96278.38;5137240;27;20043;-60
2022/09/03 01:39:42;;;;;;;14.32;8.93;;;;;;;19.66;83.61;96281.25;5137112;27;20415;-59
2022/09/03 01:42:18;;;;;;;13.52;9.60;;;;;;;19.61;83.34;96278.97;5137208;27;20050;-59
2022/09/03 01:45:18;;;;;;;12.50;10.50;;;;;;;19.52;84.01;96279.69;5136953;27;20126;-60
2022/09/03 01:47:50;;;;;;;;;;;;;;;19.48;84.29;96283.56;5136464;27;20085;-60
2022/09/03 01:50:27;;;;;;;13.85;10.88;;;;;;;19.45;84.72;96287.31;5136996;27;19987;-60
2022/09/03 01:53:00;;;;;;;16.42;9.93;;;;;;;19.43;84.32;96283.91;5136939;27;20043;-60
2022/09/03 01:55:33;;;;;;;17.65;9.32;;;;;;;19.42;84.05;96280.41;5137023;27;20485;-59
2022/09/03 01:58:06;;;;;;;20.23;9.30;;;;;;;19.41;83.90;96280.53;5136687;27;20048;-60
2022/09/03 02:00:38;;;;;;;10.75;9.70;;;;;;;19.40;84.48;96286.81;5136745;27;20481;-60
2022/09/03 02:03:08;;;;;;;16.33;9.68;;;;;;;19.38;84.33;96280.78;5136861;27;20044;-59
2022/09/03 02:05:35;;;;;;;14.63;10.93;;;;;;;19.35;83.73;96287.16;5136681;27;20100;-60
2022/09/03 02:08:05;;;;;;;11.82;10.60;;;;;;;19.21;85.33;96295.34;5136679;27;20047;-60
2022/09/03 02:10:38;;;;;;;11.77;10.55;;;;;;;19.14;85.69;96295.81;5136655;27;20451;-60
2022/09/03 02:13:08;;;;;;;12.98;10.55;;;;;;;19.09;85.97;96294.47;5136556;27;20134;-59
2022/09/03 02:15:40;;;;;;;18.93;10.37;;;;;;;19.06;85.54;96287.59;5136465;27;20079;-60
2022/09/03 02:18:13;;;;;;;17.60;11.65;;;;;;;18.96;86.04;96287.44;5136149;27;20035;-60
2022/09/03 02:20:41;;;;;;;13.10;10.73;;;;;;;19.01;86.19;96287.06;5136314;27;20051;-60
2022/09/03 02:23:08;;;;;;;17.50;10.88;;;;;;;19.01;85.51;96279.13;5136201;27;20048;-59
2022/09/03 02:25:40;;;;;;;11.75;10.07;;;;;;;19.01;85.16;96284.44;5136373;27;20374;-59
2022/09/03 02:28:09;;;;;;;11.30;9.75;;;;;;;18.98;84.90;96282.88;5136192;27;20050;-60
2022/09/03 02:30:37;;;;;;;23.45;10.32;;;;;;;18.97;84.58;96289.13;5136161;27;20043;-60
2022/09/03 02:33:05;;;;;;;18.77;10.88;;;;;;;18.93;84.48;96285.00;5135986;27;20039;-60
2022/09/03 02:35:32;;;;;;;11.38;9.40;;;;;;;18.94;83.84;96297.31;5136012;27;20065;-59
2022/09/03 02:38:09;;;;;;;17.95;10.07;;;;;;;18.94;83.82;96292.03;5135573;27;20576;-60
2022/09/03 02:40:36;;;;;;;18.73;9.38;;;;;;;18.89;83.56;96289.72;5135962;27;20072;-59
2022/09/03 02:43:09;;;;;;;18.67;9.02;;;;;;;18.86;83.26;96289.09;5135840;27;20534;-61
2022/09/03 02:45:42;;;;;;;13.27;9.50;;;;;;;18.83;82.96;96292.81;5135933;27;20116;-59
2022/09/03 02:48:10;;;;;;;18.73;9.10;;;;;;;18.78;82.92;96293.16;5135783;27;20463;-60
2022/09/03 02:50:41;;;;;;;10.77;9.68;;;;;;;18.75;82.51;96293.41;5135722;27;20125;-59
2022/09/03 02:53:07;;;;;;;;;;;;;;;18.66;82.48;96288.81;5136024;27;20043;-60
2022/09/03 02:55:35;;;;;;;16.52;9.75;;;;;;;18.59;82.90;96299.00;5135497;27;19923;-60
2022/09/03 02:58:03;;;;;;;15.02;10.00;;;;;;;18.54;83.10;96299.34;5135722;27;20130;-60
2022/09/03 03:00:30;;;;;;;19.08;10.45;;;;;;;18.53;83.33;96299.44;5135648;27;20073;-59
2022/09/03 03:02:59;;;;;;;16.58;9.90;;;;;;;18.52;83.10;96292.47;5135519;27;20082;-59
2022/09/03 03:05:36;;;;;;;13.65;10.55;;;;;;;18.47;83.67;96289.31;5135371;27;20474;-61
2022/09/03 03:08:04;;;;;;;13.25;9.95;;;;;;;18.39;84.79;96292.56;5135392;27;20086;-60
2022/09/03 03:10:31;;;;;;;13.05;11.15;;;;;;;18.36;85.02;96295.44;5135714;27;20047;-59
2022/09/03 03:12:58;;;;;;;15.38;10.80;;;;;;;18.36;84.33;96290.94;5135288;27;20066;-60
2022/09/03 03:15:25;;;;;;;20.33;11.27;;;;;;;18.25;83.85;96285.63;5135153;27;20043;-59
2022/09/03 03:17:52;;;;;;;17.33;11.38;;;;;;;18.28;84.17;96285.38;5134967;27;20051;-59
2022/09/03 03:20:20;;;;;;;16.80;10.00;;;;;;;18.25;82.95;96283.81;5135143;27;20051;-60
2022/09/03 03:22:48;;;;;;;15.38;9.60;;;;;;;18.20;83.20;96285.94;5135073;27;20137;-60
2022/09/03 03:25:15;;;;;;;16.75;10.77;;;;;;;18.22;83.30;96288.47;5135009;27;20054;-60
2022/09/03 03:27:42;;;;;;;17.52;9.85;;;;;;;18.21;82.71;96287.63;5135000;27;20492;-60
2022/09/03 03:30:11;;;;;;;15.35;10.20;;;;;;;18.11;82.32;96284.81;5134858;27;20404;-60
2022/09/03 03:32:38;;;;;;;19.10;10.23;;;;;;;18.09;82.44;96281.41;5134989;27;20044;-60
2022/09/03 03:35:07;;;;;;;20.85;9.77;;;;;;;18.08;82.30;96289.44;5134971;27;20141;-60
2022/09/03 03:37:35;;;;;;;16.40;10.13;;;;;;;17.97;82.54;96282.31;5134962;27;20074;-60
2022/09/03 03:40:03;;;;;;;19.02;10.30;;;;;;;17.91;82.97;96283.59;5134739;27;20051;-60
2022/09/03 03:42:33;;;;;;;14.60;9.27;;;;;;;17.85;83.51;96281.38;5134735;27;20064;-60
2022/09/03 03:45:01;;;;;;;17.48;10.18;;;;;;;17.88;83.07;96283.81;5134693;27;20400;-59
2022/09/03 03:47:29;;;;;;;13.93;8.88;;;;;;;17.85;82.83;96284.84;5134722;27;20446;-59
2022/09/03 03:49:56;;;;;;;14.45;9.20;;;;;;;17.80;82.75;96284.34;5134009;27;20051;-62
2022/09/03 03:52:24;;;;;;;15.20;8.65;;;;;;;17.77;82.26;96287.22;5134683;27;20043;-62
2022/09/03 03:54:53;;;;;;;21.65;10.32;;;;;;;17.77;82.41;96274.84;5134550;27;20508;-62
2022/09/03 03:57:21;;;;;;;27.35;10.02;;;;;;;17.78;82.35;96280.97;5134647;27;20043;-61
2022/09/03 03:59:48;;;;;;;12.50;8.52;;;;;;;17.76;82.40;96285.53;5134337;27;20039;-61
2022/09/03 04:02:16;;;;;;;18.17;8.57;;;;;;;17.79;82.29;96282.69;5134601;27;20047;-61
2022/09/03 04:04:43;;;;;;;9.10;7.75;;;;;;;17.79;81.90;96287.97;5134440;27;20096;-61
2022/09/03 04:07:10;;;;;;;11.05;8.48;;;;;;;17.75;82.73;96294.41;5134336;27;20047;-60
2022/09/03 04:09:38;;;;;;;10.85;8.57;;;;;;;17.80;82.79;96290.50;5134348;27;20079;-60
2022/09/03 04:12:07;;;;;;;8.38;7.45;;;;;;;17.80;81.60;96294.94;5134414;27;20047;-61
2022/09/03 04:14:35;;;;;;;12.23;7.65;;;;;;;17.77;81.41;96293.38;5134411;27;20070;-61
2022/09/03 04:17:03;;;;;;;9.48;7.05;;;;;;;17.81;81.91;96293.97;5134050;27;20677;-61
2022/09/03 04:19:31;;;;;;;10.68;7.13;;;;;;;17.83;82.30;96305.31;5134228;27;20074;-61
2022/09/03 04:21:58;;;;;;;9.77;7.05;;;;;;;17.91;82.42;96304.75;5134194;27;20105;-60
2022/09/03 04:24:26;;;;;;;13.05;7.55;;;;;;;17.97;81.93;96304.28;5134121;27;20086;-60
2022/09/03 04:26:53;;;;;;;8.50;6.38;;;;;;;18.06;82.38;96308.94;5134072;27;20044;-61
2022/09/03 04:29:22;;;;;;;13.05;6.00;;;;;;;18.15;81.54;96307.44;5134017;27;20126;-61
2022/09/03 04:34:30;;;;;;;;;;;;;;;18.78;80.28;96301.13;5134528;28;20046;-60
2022/09/03 04:36:58;;;;;;;7.60;5.07;;;;;;;19.18;79.29;96307.84;5134061;27;19920;-61
2022/09/03 04:39:25;;;;;;;6.38;5.00;;;;;;;19.61;77.61;96305.50;5134020;27;20053;-61
2022/09/03 04:41:52;;;;;;;11.88;4.70;;;;;;;20.10;75.96;96313.19;5133903;27;20082;-62
2022/09/03 04:44:21;;;;;;;11.98;4.50;;;;;;;20.53;73.82;96327.44;5134090;27;20078;-61
2022/09/03 04:46:48;;;;;;;8.68;4.50;;;;;;;20.98;71.32;96322.09;5133901;27;20123;-62
2022/09/03 04:49:15;;;;;;;8.43;3.80;;;;;;;21.41;70.13;96321.13;5133928;27;20378;-62
2022/09/03 04:51:43;;;;;;;7.70;3.30;;;;;;;21.81;67.37;96318.66;5133971;27;20445;-61
2022/09/03 04:54:10;;;;;;;9.30;3.38;;;;;;;22.25;66.45;96326.38;5133856;27;20044;-61
2022/09/03 04:56:39;;;;;;;7.68;3.10;;;;;;;22.69;65.33;96322.50;5133951;27;20480;-61
2022/09/03 04:59:08;;;;;;;6.53;3.03;;;;;;;23.08;64.04;96316.31;5133925;27;20107;-61
2022/09/03 05:01:38;;;;;;;6.25;3.25;;;;;;;23.48;62.53;96319.78;5136893;27;20051;-60
2022/09/03 05:04:07;;;;;;;2.83;2.63;;;;;;;23.86;61.33;96327.78;5137979;27;20051;-61
2022/09/03 05:06:35;;;;;;;4.80;2.72;;;;;;;24.29;60.67;96324.66;5137859;27;20086;-61
2022/09/03 05:09:04;;;;;;;4.40;2.63;;;;;;;24.86;60.17;96326.19;5137737;27;20082;-59
2022/09/03 05:11:31;;;;;;;5.70;2.50;;;;;;;25.38;56.97;96329.97;5137806;27;20074;-59
2022/09/03 05:14:00;;;;;;;3.08;2.10;;;;;;;25.79;56.70;96333.94;5137833;27;20043;-61
2022/09/03 05:16:29;;;;;;;3.05;2.65;;;;;;;26.20;55.61;96339.44;5137448;27;20073;-59
2022/09/03 05:18:59;;;;;;;7.88;2.88;;;;;;;26.65;54.75;96350.00;5137507;27;20043;-61
2022/09/03 05:21:28;;;;;;;4.93;2.50;;;;;;;27.09;52.24;96350.75;5137369;27;20104;-61
2022/09/03 05:23:56;;;;;;;5.97;2.15;;;;;;;27.48;51.61;96351.88;5137451;27;20050;-60
2022/09/03 05:26:25;;;;;;;6.60;2.50;;;;;;;27.73;50.54;96346.50;5137493;27;20075;-61
2022/09/03 05:28:55;;;;;;;3.92;2.17;;;;;;;27.94;49.20;96351.31;5137173;27;20047;-60
2022/09/03 05:31:25;;;;;;;3.47;2.28;;;;;;;28.29;48.53;96356.38;5137270;27;20049;-61
2022/09/03 05:33:53;;;;;;;2.72;2.30;;;;;;;28.62;46.89;96358.06;5137349;27;20546;-61
2022/09/03 05:36:24;;;;;;;4.15;2.28;;;;;;;28.83;47.46;96357.41;5137144;27;20043;-61
2022/09/03 05:38:53;;;;;;;4.57;2.20;;;;;;;29.13;46.43;96370.19;5137204;27;20039;-59
2022/09/03 05:41:21;;;;;;;5.35;2.33;;;;;;;29.46;48.44;96366.38;5137079;27;20051;-61
2022/09/03 05:43:54;;;;;;;3.67;2.53;;;;;;;29.77;47.55;96360.06;5137244;27;20477;-60
2022/09/03 05:46:26;;;;;;;2.90;2.45;;;;;;;29.92;46.08;96362.75;5137055;27;20130;-60
2022/09/03 05:48:53;;;;;;;2.35;2.15;;;;;;;30.03;44.82;96366.81;5137013;27;20043;-61
2022/09/03 05:51:22;;;;;;;2.30;1.63;;;;;;;29.63;44.28;96362.56;5136946;27;20043;-60
2022/09/03 05:53:49;;;;;;;4.90;1.83;;;;;;;29.47;44.16;96371.56;5136990;27;20081;-60
2022/09/03 05:56:19;;;;;;;4.35;1.65;;;;;;;29.22;43.52;96382.56;5136913;27;20088;-60
2022/09/03 05:58:49;;;;;;;4.40;1.50;;;;;;;29.01;44.11;96375.16;5137177;27;20060;-61
2022/09/03 06:01:19;;;;;;;1.83;1.67;;;;;;;28.46;45.48;96381.34;5136698;27;20055;-60
2022/09/03 06:03:48;;;;;;;11.90;1.95;;;;;;;28.29;47.21;96377.03;5136799;27;20469;-61
2022/09/03 06:06:16;;;;;;;2.72;1.67;;;;;;;28.32;46.09;96377.53;5136719;27;20055;-61
2022/09/03 06:08:50;;;;;;;3.35;1.98;;;;;;;28.59;45.78;96374.56;5136676;27;20055;-61
2022/09/03 06:11:17;;;;;;;5.15;1.40;;;;;;;29.00;45.88;96366.25;5136499;27;20100;-61
2022/09/03 06:13:44;;;;;;;1.60;1.50;;;;;;;29.21;44.92;96375.53;5136031;27;20043;-60
2022/09/03 06:16:12;;;;;;;4.28;2.10;;;;;;;29.42;44.06;96390.16;5136126;27;20043;-61
2022/09/03 06:18:39;;;;;;;4.35;2.15;;;;;;;29.39;45.20;96387.81;5136432;27;20459;-60
2022/09/03 06:21:07;;;;;;;7.53;2.33;;;;;;;29.54;43.47;96387.00;5136255;27;20142;-60
2022/09/03 06:23:37;;;;;;;2.30;2.10;;;;;;;28.98;43.15;96392.50;5136331;27;20066;-61
2022/09/03 06:26:07;;;;;;;3.13;2.22;;;;;;;28.85;44.47;96385.00;5136267;27;20404;-60
2022/09/03 06:28:36;;;;;;;2.05;1.88;;;;;;;29.05;45.88;96389.09;5136189;27;20061;-61
2022/09/03 06:31:05;;;;;;;4.63;1.90;;;;;;;28.98;45.16;96391.66;5136096;27;20538;-62
2022/09/03 06:33:35;;;;;;;3.65;2.17;;;;;;;29.07;44.92;96387.09;5136112;27;20147;-61
2022/09/03 06:36:04;;;;;;;3.83;2.80;;;;;;;28.98;47.03;96388.97;5136181;27;20536;-60
2022/09/03 06:38:34;;;;;;;4.15;1.88;;;;;;;28.95;46.37;96395.56;5135985;27;20043;-60
2022/09/03 06:41:03;;;;;;;3.05;1.73;;;;;;;28.60;47.47;96392.38;5135943;27;20453;-61
2022/09/03 06:43:33;;;;;;;4.60;1.95;;;;;;;28.36;47.96;96392.31;5135943;27;20079;-61
2022/09/03 06:46:03;;;;;;;2.53;1.80;;;;;;;27.87;48.62;96394.13;5135851;27;20047;-61
2022/09/03 06:48:31;;;;;;;5.07;1.80;;;;;;;27.54;49.35;96394.16;5135863;27;20043;-60
2022/09/03 06:51:01;;;;;;;5.68;2.10;;;;;;;27.28;50.60;96402.38;5135695;27;20317;-61
2022/09/03 06:53:30;;;;;;;2.07;1.87;;;;;;;27.22;49.92;96402.06;5135822;27;20105;-61
2022/09/03 06:55:58;;;;;;;2.05;1.80;;;;;;;27.71;51.15;96400.38;5135838;27;20047;-61
2022/09/03 06:58:28;;;;;;;1.92;1.77;;;;;;;28.03;48.77;96402.31;5135637;27;20078;-60
2022/09/03 07:01:02;;;;;;;3.47;1.75;;;;;;;27.86;48.57;96407.72;5135542;27;20079;-61
2022/09/03 07:03:29;;;;;;;1.83;1.65;;;;;;;27.96;47.47;96404.88;5135474;27;20039;-61
2022/09/03 07:06:01;;;;;;;2.38;1.90;;;;;;;28.10;47.20;96404.16;5135818;27;20382;-62
2022/09/03 07:08:28;;;;;;;1.77;1.63;;;;;;;27.84;48.52;96409.78;5135472;27;20039;-60
2022/09/03 07:10:55;;;;;;;4.25;1.95;;;;;;;27.57;48.01;96406.41;5135447;27;20385;-61
2022/09/03 07:13:23;;;;;;;5.53;1.85;;;;;;;27.37;49.44;96407.63;5135392;27;20039;-60
2022/09/03 07:15:59;;;;;;;4.28;2.33;;;;;;;27.15;50.01;96416.31;5135144;27;20054;-62
2022/09/03 07:18:26;;;;;;;1.75;1.60;;;;;;;26.82;50.20;96415.22;5135178;27;20058;-60
2022/09/03 07:21:00;;;;;;;5.32;2.35;;;;;;;26.74;51.19;96420.56;5135141;27;20047;-61
2022/09/03 07:23:28;;;;;;;5.30;1.83;;;;;;;26.68;50.47;96423.91;5134583;27;20050;-60
2022/09/03 07:25:56;;;;;;;2.08;1.60;;;;;;;26.29;51.91;96420.75;5134862;27;20515;-61
2022/09/03 07:28:24;;;;;;;3.35;1.80;;;;;;;26.12;52.41;96419.78;5134987;27;20051;-60
2022/09/03 07:30:51;;;;;;;2.55;1.33;;;;;;;25.80;53.14;96423.97;5134937;27;20506;-61
2022/09/03 07:33:20;;;;;;;1.88;1.33;;;;;;;25.39;53.97;96429.81;5134999;27;20046;-60
2022/09/03 07:35:48;;;;;;;1.70;1.48;;;;;;;25.14;54.53;96429.63;5134946;27;20100;-61
2022/09/03 07:38:19;;;;;;;1.38;1.27;;;;;;;25.02;55.70;96431.69;5134878;27;20131;-61
2022/09/03 07:40:47;;;;;;;2.03;1.50;;;;;;;24.85;54.19;96436.81;5134729;27;20049;-59
2022/09/03 07:43:14;;;;;;;1.88;1.67;;;;;;;24.52;55.28;96431.09;5134678;27;20083;-61
2022/09/03 07:45:45;;;;;;;4.60;1.63;;;;;;;24.28;56.27;96436.00;5134626;27;20079;-60
2022/09/03 07:48:12;;;;;;;3.90;1.52;;;;;;;24.26;56.92;96432.63;5134746;27;20051;-60
2022/09/03 07:50:41;;;;;;;3.53;1.55;;;;;;;24.48;56.26;96425.25;5134509;27;20047;-60
2022/09/03 07:53:08;;;;;;;4.57;1.80;;;;;;;24.86;55.81;96423.31;5134689;27;20133;-60
2022/09/03 07:55:35;;;;;;;1.77;1.42;;;;;;;25.34;54.29;96433.81;5134521;27;20050;-60
2022/09/03 07:58:02;;;;;;;1.45;1.35;;;;;;;25.82;51.10;96435.34;5134540;27;20039;-60
2022/09/03 08:00:32;;;;;;;2.17;1.75;;;;;;;26.15;50.25;96429.38;5134537;27;20051;-61
2022/09/03 08:03:04;;;;;;;4.78;1.33;;;;;;;26.23;48.55;96427.56;5134406;27;20100;-61
2022/09/03 08:05:34;;;;;;;1.38;1.20;;;;;;;26.37;48.97;96422.63;5134514;27;20047;-60
2022/09/03 08:08:03;;;;;;;1.50;1.40;;;;;;;26.51;48.02;96418.47;5134586;27;20047;-60
2022/09/03 08:10:31;;;;;;;1.60;1.50;;;;;;;26.37;49.22;96419.97;5134487;27;20071;-59
2022/09/03 08:12:59;;;;;;;1.52;1.40;;;;;;;26.45;49.79;96417.28;5134344;27;20476;-61
2022/09/03 08:15:26;;;;;;;3.42;1.50;;;;;;;26.52;50.39;96413.97;5134117;27;20051;-61
2022/09/03 08:17:53;;;;;;;1.58;1.33;;;;;;;26.72;47.53;96412.69;5134014;27;20054;-61
2022/09/03 08:20:21;;;;;;;1.45;1.20;;;;;;;27.02;47.88;96425.69;5134358;27;20051;-59
2022/09/03 08:22:48;;;;;;;1.45;1.35;;;;;;;27.07;47.29;96409.94;5134175;27;20062;-60
2022/09/03 08:25:17;;;;;;;2.00;1.40;;;;;;;26.85;47.66;96408.69;5134336;27;20092;-61
2022/09/03 08:27:44;;;;;;;2.13;1.30;;;;;;;27.26;48.46;96415.97;5134049;27;20047;-60
2022/09/03 08:30:12;;;;;;;2.33;1.20;;;;;;;27.67;44.65;96409.78;5134215;27;20054;-60
2022/09/03 08:32:40;;;;;;;1.30;1.20;;;;;;;27.96;44.33;96410.25;5134002;27;20499;-61
2022/09/03 08:35:08;;;;;;;2.28;1.70;;;;;;;28.24;44.33;96405.25;5134725;27;20104;-61
2022/09/03 08:37:36;;;;;;;1.33;1.10;;;;;;;28.12;44.87;96402.13;5138246;27;20039;-61
2022/09/03 08:40:04;;;;;;;3.08;1.30;;;;;;;28.16;44.87;96399.94;5138463;27;20116;-61
2022/09/03 08:42:50;;;;;;;2.72;1.52;;;;;;;28.43;46.18;96403.22;5138296;27;20488;-60
2022/09/03 08:45:21;;;;;;;5.22;1.70;;;;;;;28.82;47.20;96398.81;5138307;27;20043;-60
2022/09/03 08:47:48;;;;;;;;;;;;;;;29.03;45.14;96404.59;5138734;27;20212;-60
2022/09/03 08:50:25;;;;;;;1.88;1.50;;;;;;;28.84;45.08;96404.00;5138177;27;20426;-61
2022/09/03 08:52:57;;;;;;;2.13;1.80;;;;;;;28.87;46.86;96404.47;5138090;27;20047;-61
2022/09/03 08:55:27;;;;;;;3.35;1.95;;;;;;;29.06;44.77;96405.06;5137928;27;20507;-62
2022/09/03 08:58:01;;;;;;;2.75;1.80;;;;;;;28.78;45.28;96413.63;5137976;27;20047;-60
2022/09/03 09:00:41;;;;;;;3.33;3.03;;;;;;;28.69;46.70;96410.16;5137895;27;20043;-61
2022/09/03 09:03:30;;;;;;;4.28;2.10;;;;;;;28.70;45.57;96413.66;5137824;27;20103;-59
2022/09/03 09:06:09;;;;;;;3.97;1.90;;;;;;;28.85;42.72;96413.75;5137878;27;20051;-60
2022/09/03 09:08:45;;;;;;;3.85;3.03;;;;;;;28.72;43.37;96406.28;5137829;27;20450;-61
2022/09/03 09:11:20;;;;;;;3.35;3.05;;;;;;;28.62;44.22;96414.53;5137792;27;20460;-60
2022/09/03 09:13:56;;;;;;;3.92;3.08;;;;;;;28.65;46.23;96416.88;5137684;27;20051;-60
2022/09/03 09:16:31;;;;;;;3.40;3.10;;;;;;;28.67;45.76;96412.19;5137375;27;20400;-59
2022/09/03 09:19:10;;;;;;;3.80;3.47;;;;;;;28.50;44.22;96409.56;5137615;27;20067;-61
2022/09/03 09:21:45;;;;;;;3.33;2.97;;;;;;;28.80;45.87;96414.28;5137605;27;20088;-60
2022/09/03 09:24:22;;;;;;;4.68;3.20;;;;;;;29.27;44.78;96414.34;5137890;27;20043;-61
2022/09/03 09:26:50;;;;;;;5.43;2.80;;;;;;;29.10;43.14;96410.91;5137479;27;20090;-60
2022/09/03 09:29:19;;;;;;;3.22;2.92;;;;;;;29.04;46.18;96408.97;5137447;27;20121;-61
2022/09/03 09:31:49;;;;;;;4.68;3.28;;;;;;;29.37;47.34;96406.00;5137413;27;20220;-64
2022/09/03 09:34:16;;;;;;;;;;;;;;;29.01;43.10;96405.59;5137764;27;20088;-59
2022/09/03 09:36:48;;;;;;;5.35;3.25;;;;;;;28.76;44.53;96407.59;5137288;27;20285;-61
2022/09/03 09:39:16;;;;;;;3.17;2.97;;;;;;;28.72;45.17;96412.47;5137205;27;20053;-62
2022/09/03 09:41:44;;;;;;;2.90;2.50;;;;;;;28.74;45.21;96413.16;5137140;27;20481;-61
2022/09/03 09:44:20;;;;;;;8.18;2.70;;;;;;;28.95;47.34;96414.38;5137110;27;20404;-62
2022/09/03 09:46:48;;;;;;;5.05;2.40;;;;;;;29.04;46.20;96415.16;5136035;27;20534;-62
2022/09/03 09:49:31;;;;;;;2.60;2.15;;;;;;;28.56;44.60;96410.72;5136997;27;20043;-62
2022/09/03 09:52:12;;;;;;;4.40;2.28;;;;;;;28.32;45.13;96411.69;5136934;27;20077;-61
2022/09/03 09:54:40;;;;;;;2.58;2.38;;;;;;;28.29;47.99;96410.16;5136965;27;20061;-61
2022/09/03 09:57:09;;;;;;;3.42;2.90;;;;;;;28.61;49.00;96412.88;5136988;27;20043;-61
2022/09/03 09:59:37;;;;;;;3.05;2.50;;;;;;;28.90;46.90;96419.44;5136854;27;20043;-61
2022/09/03 10:02:12;;;;;;;5.45;2.53;;;;;;;29.18;46.25;96421.66;5136675;27;20477;-60
2022/09/03 10:04:39;;;;;;;3.47;2.60;;;;;;;29.03;44.26;96413.50;5136714;27;20446;-60
2022/09/03 10:07:30;;;;;;;2.92;2.70;;;;;;;28.98;43.16;96418.56;5136598;27;20126;-60
2022/09/03 10:10:03;;;;;;;2.60;2.40;;;;;;;28.69;45.00;96425.44;5136501;27;20103;-61
2022/09/03 10:12:36;;;;;;;5.30;2.85;;;;;;;28.56;45.26;96424.16;5136562;27;20443;-60
2022/09/03 10:15:18;;;;;;;3.75;2.78;;;;;;;28.38;46.42;96424.41;5136525;27;20500;-61
2022/09/03 10:17:55;;;;;;;2.60;2.40;;;;;;;28.20;45.57;96420.06;5136310;27;20051;-61
2022/09/03 10:20:32;;;;;;;3.33;2.33;;;;;;;28.03;44.39;96421.13;5136381;27;20123;-60
2022/09/03 10:23:11;;;;;;;3.47;2.70;;;;;;;27.86;46.18;96424.72;5136383;27;20043;-60
2022/09/03 10:25:49;;;;;;;3.67;3.20;;;;;;;27.82;46.94;96425.22;5136231;27;20047;-60
2022/09/03 10:28:16;;;;;;;3.67;3.10;;;;;;;27.81;45.92;96429.75;5136221;27;20051;-61
2022/09/03 10:31:03;;;;;;;2.90;2.70;;;;;;;27.69;44.06;96425.75;5136325;27;20381;-59
2022/09/03 10:33:35;;;;;;;4.35;3.00;;;;;;;27.62;45.43;96431.75;5136256;27;20051;-61
2022/09/03 10:36:12;;;;;;;5.50;3.17;;;;;;;27.63;45.24;96436.09;5136135;27;20499;-60
2022/09/03 10:38:42;;;;;;;3.42;2.97;;;;;;;27.68;46.01;96434.78;5135947;27;20047;-61
2022/09/03 10:41:20;;;;;;;3.38;2.85;;;;;;;27.74;48.17;96423.38;5136005;27;20047;-60
2022/09/03 10:44:05;;;;;;;4.35;2.67;;;;;;;27.70;47.36;96430.09;5135877;27;20047;-61
2022/09/03 10:46:46;;;;;;;3.50;3.20;;;;;;;27.76;47.25;96426.75;5135969;27;20047;-61
2022/09/03 10:49:25;;;;;;;5.55;3.40;;;;;;;27.74;47.95;96418.84;5135766;27;20047;-62
2022/09/03 10:52:02;;;;;;;4.63;3.40;;;;;;;27.74;47.74;96424.22;5135701;27;20090;-60
2022/09/03 10:54:45;;;;;;;7.45;3.20;;;;;;;27.71;48.06;96429.06;5135661;27;20073;-61
2022/09/03 10:57:25;;;;;;;4.63;2.83;;;;;;;27.65;49.85;96421.69;5135705;27;20043;-60
2022/09/03 11:00:05;;;;;;;2.50;2.30;;;;;;;27.61;50.67;96429.25;5135449;27;20047;-61
2022/09/03 11:03:20;;;;;;;3.03;2.80;;;;;;;27.41;50.35;96426.88;5135671;27;20092;-61
2022/09/03 11:05:58;;;;;;;4.25;3.13;;;;;;;27.35;51.33;96428.41;5135601;27;20116;-60
2022/09/03 11:08:30;;;;;;;4.15;3.40;;;;;;;27.07;50.37;96433.25;5135437;27;20107;-59
2022/09/03 11:11:09;;;;;;;3.13;2.70;;;;;;;27.07;52.55;96434.09;5135406;27;20119;-61
2022/09/03 11:13:40;;;;;;;4.13;2.95;;;;;;;27.20;53.19;96430.91;5135408;27;20047;-61
2022/09/03 11:16:16;;;;;;;5.15;2.78;;;;;;;27.43;51.05;96429.41;5135004;27;20047;-60
2022/09/03 11:18:49;;;;;;;5.18;3.05;;;;;;;27.65;49.62;96432.44;5135310;27;20108;-60
2022/09/03 11:21:22;;;;;;;5.10;2.85;;;;;;;27.87;48.35;96433.59;5135328;27;20449;-60
2022/09/03 11:23:59;;;;;;;5.05;3.33;;;;;;;27.77;48.01;96438.31;5135142;27;20080;-61
2022/09/03 11:26:27;;;;;;;4.63;2.90;;;;;;;27.66;49.80;96432.28;5135007;27;20054;-60
2022/09/03 11:29:01;;;;;;;2.63;2.42;;;;;;;27.62;49.71;96437.13;5134941;27;20301;-60
2022/09/03 11:31:39;;;;;;;2.63;2.40;;;;;;;27.68;46.08;96432.94;5134934;27;20047;-60
2022/09/03 11:34:13;;;;;;;3.75;2.20;;;;;;;27.58;46.84;96430.41;5134902;27;20065;-60
2022/09/03 11:36:41;;;;;;;3.95;2.53;;;;;;;27.29;47.40;96428.22;5134959;27;20073;-60
2022/09/03 11:39:20;;;;;;;2.58;2.22;;;;;;;27.12;47.09;96430.91;5134832;27;20039;-60
2022/09/03 11:42:03;;;;;;;3.10;2.47;;;;;;;26.94;47.99;96431.84;5134948;27;20126;-60
2022/09/03 11:44:38;;;;;;;3.15;2.60;;;;;;;26.94;48.06;96431.84;5134620;27;20068;-60
2022/09/03 11:47:16;;;;;;;2.85;2.55;;;;;;;26.84;48.36;96429.31;5134660;27;20054;-60
2022/09/03 11:49:50;;;;;;;4.55;2.60;;;;;;;26.66;47.88;96425.94;5134736;27;20053;-60
2022/09/03 11:52:27;;;;;;;3.30;2.90;;;;;;;26.46;47.79;96428.88;5134655;27;20111;-61
2022/09/03 11:54:54;;;;;;;3.25;2.70;;;;;;;26.37;48.52;96428.00;5134625;27;20496;-60